sensor_id;sensor_type;location;lat;lon;timestamp;temperature;humidity
15095;DHT22;7648;52.264;9.632;2022-10-16T00:03:49;14.20;99.90
15095;DHT22;7648;52.264;9.632;2022-10-16T00:07:53;14.20;99.90
15095;DHT22;7648;52.264;9.632;2022-10-16T00:11:55;14.20;99.90
15095;DHT22;7648;52.264;9.632;2022-10-16T00:15:57;14.10;99.90
15095;DHT22;7648;52.264;9.632;2022-10-16T00:20:00;14.10;99.90
15095;DHT22;7648;52.264;9.632;2022-10-16T00:24:05;14.00;99.90
15095;DHT22;7648;52.264;9.632;2022-10-16T00:28:08;14.00;99.90
15095;DHT22;7648;52.264;9.632;2022-10-16T00:32:10;14.00;99.90
15095;DHT22;7648;52.264;9.632;2022-10-16T00:36:14;13.90;99.90
15095;DHT22;7648;52.264;9.632;2022-10-16T00:40:18;13.80;99.90
15095;DHT22;7648;52.264;9.632;2022-10-16T00:44:43;13.70;99.90
15095;DHT22;7648;52.264;9.632;2022-10-16T00:48:50;13.90;99.90
15095;DHT22;7648;52.264;9.632;2022-10-16T00:52:53;14.00;99.90
15095;DHT22;7648;52.264;9.632;2022-10-16T00:57:00;14.10;99.90
15095;DHT22;7648;52.264;9.632;2022-10-16T01:01:02;14.20;99.90
15095;DHT22;7648;52.264;9.632;2022-10-16T01:05:05;14.30;99.90
15095;DHT22;7648;52.264;9.632;2022-10-16T01:09:13;14.30;99.90
15095;DHT22;7648;52.264;9.632;2022-10-16T01:13:21;14.30;99.90
15095;DHT22;7648;52.264;9.632;2022-10-16T01:17:31;14.30;99.90
15095;DHT22;7648;52.264;9.632;2022-10-16T01:21:39;14.30;99.90
15095;DHT22;7648;52.264;9.632;2022-10-16T01:26:02;14.30;99.90
15095;DHT22;7648;52.264;9.632;2022-10-16T01:30:15;14.20;99.90
15095;DHT22;7648;52.264;9.632;2022-10-16T01:34:22;14.20;99.90
15095;DHT22;7648;52.264;9.632;2022-10-16T01:38:30;14.20;99.90
15095;DHT22;7648;52.264;9.632;2022-10-16T01:42:36;14.10;99.90
15095;DHT22;7648;52.264;9.632;2022-10-16T01:46:42;14.00;99.90
15095;DHT22;7648;52.264;9.632;2022-10-16T01:50:59;14.00;99.90
15095;DHT22;7648;52.264;9.632;2022-10-16T01:55:04;14.00;99.90
15095;DHT22;7648;52.264;9.632;2022-10-16T01:59:10;14.00;99.90
15095;DHT22;7648;52.264;9.632;2022-10-16T02:03:16;13.90;99.90
15095;DHT22;7648;52.264;9.632;2022-10-16T02:07:20;14.00;99.90
15095;DHT22;7648;52.264;9.632;2022-10-16T02:11:22;14.00;99.90
15095;DHT22;7648;52.264;9.632;2022-10-16T02:15:24;13.90;99.90
15095;DHT22;7648;52.264;9.632;2022-10-16T02:19:27;13.90;99.90
15095;DHT22;7648;52.264;9.632;2022-10-16T02:23:35;13.90;99.90
15095;DHT22;7648;52.264;9.632;2022-10-16T02:27:47;13.90;99.90
15095;DHT22;7648;52.264;9.632;2022-10-16T02:31:57;13.80;99.90
15095;DHT22;7648;52.264;9.632;2022-10-16T02:36:02;13.80;99.90
15095;DHT22;7648;52.264;9.632;2022-10-16T02:40:05;13.80;99.90
15095;DHT22;7648;52.264;9.632;2022-10-16T02:44:08;13.70;99.90
15095;DHT22;7648;52.264;9.632;2022-10-16T02:48:10;13.60;99.90
15095;DHT22;7648;52.264;9.632;2022-10-16T02:52:13;13.60;99.90
15095;DHT22;7648;52.264;9.632;2022-10-16T02:56:15;13.60;99.90
15095;DHT22;7648;52.264;9.632;2022-10-16T03:00:17;13.70;99.90
15095;DHT22;7648;52.264;9.632;2022-10-16T03:04:19;13.60;99.90
15095;DHT22;7648;52.264;9.632;2022-10-16T03:08:22;13.60;99.90
15095;DHT22;7648;52.264;9.632;2022-10-16T03:12:26;13.60;99.90
15095;DHT22;7648;52.264;9.632;2022-10-16T03:16:28;13.60;99.90
15095;DHT22;7648;52.264;9.632;2022-10-16T03:20:29;13.60;99.90
15095;DHT22;7648;52.264;9.632;2022-10-16T03:24:33;13.50;99.90
15095;DHT22;7648;52.264;9.632;2022-10-16T03:28:35;13.40;99.90
15095;DHT22;7648;52.264;9.632;2022-10-16T03:32:37;13.40;99.90
15095;DHT22;7648;52.264;9.632;2022-10-16T03:36:38;13.30;99.90
15095;DHT22;7648;52.264;9.632;2022-10-16T03:40:42;13.30;99.90
15095;DHT22;7648;52.264;9.632;2022-10-16T03:44:44;13.20;99.90
15095;DHT22;7648;52.264;9.632;2022-10-16T03:48:46;13.30;99.90
15095;DHT22;7648;52.264;9.632;2022-10-16T03:52:48;13.30;99.90
15095;DHT22;7648;52.264;9.632;2022-10-16T03:56:51;13.30;99.90
15095;DHT22;7648;52.264;9.632;2022-10-16T04:00:53;13.30;99.90
15095;DHT22;7648;52.264;9.632;2022-10-16T04:04:55;13.30;99.90
15095;DHT22;7648;52.264;9.632;2022-10-16T04:08:57;13.30;99.90
15095;DHT22;7648;52.264;9.632;2022-10-16T04:13:00;13.30;99.90
15095;DHT22;7648;52.264;9.632;2022-10-16T04:17:02;13.20;99.90
15095;DHT22;7648;52.264;9.632;2022-10-16T04:21:05;13.20;99.90
15095;DHT22;7648;52.264;9.632;2022-10-16T04:25:08;13.20;99.90
15095;DHT22;7648;52.264;9.632;2022-10-16T04:29:11;13.20;99.90
15095;DHT22;7648;52.264;9.632;2022-10-16T04:33:13;13.20;99.90
15095;DHT22;7648;52.264;9.632;2022-10-16T04:37:15;13.20;99.90
15095;DHT22;7648;52.264;9.632;2022-10-16T04:41:17;13.30;99.90
15095;DHT22;7648;52.264;9.632;2022-10-16T04:45:21;13.40;99.90
15095;DHT22;7648;52.264;9.632;2022-10-16T04:49:23;13.40;99.90
15095;DHT22;7648;52.264;9.632;2022-10-16T04:53:24;13.50;99.90
15095;DHT22;7648;52.264;9.632;2022-10-16T04:57:26;13.50;99.90
15095;DHT22;7648;52.264;9.632;2022-10-16T05:01:30;13.50;99.90
15095;DHT22;7648;52.264;9.632;2022-10-16T05:05:32;13.50;99.90
15095;DHT22;7648;52.264;9.632;2022-10-16T05:09:34;13.40;99.90
15095;DHT22;7648;52.264;9.632;2022-10-16T05:13:35;13.40;99.90
15095;DHT22;7648;52.264;9.632;2022-10-16T05:17:39;13.40;99.90
15095;DHT22;7648;52.264;9.632;2022-10-16T05:21:41;13.40;99.90
15095;DHT22;7648;52.264;9.632;2022-10-16T05:25:43;13.30;99.90
15095;DHT22;7648;52.264;9.632;2022-10-16T05:29:45;13.30;99.90
15095;DHT22;7648;52.264;9.632;2022-10-16T05:33:48;13.20;99.90
15095;DHT22;7648;52.264;9.632;2022-10-16T05:37:50;13.10;99.90
15095;DHT22;7648;52.264;9.632;2022-10-16T05:41:52;13.00;99.90
15095;DHT22;7648;52.264;9.632;2022-10-16T05:45:55;12.90;99.90
15095;DHT22;7648;52.264;9.632;2022-10-16T05:49:59;12.90;99.90
15095;DHT22;7648;52.264;9.632;2022-10-16T05:54:01;12.90;99.90
15095;DHT22;7648;52.264;9.632;2022-10-16T05:58:03;12.80;99.90
15095;DHT22;7648;52.264;9.632;2022-10-16T06:02:05;12.80;99.90
15095;DHT22;7648;52.264;9.632;2022-10-16T06:06:09;12.80;99.90
15095;DHT22;7648;52.264;9.632;2022-10-16T06:10:12;12.80;99.90
15095;DHT22;7648;52.264;9.632;2022-10-16T06:14:14;12.80;99.90
15095;DHT22;7648;52.264;9.632;2022-10-16T06:18:16;12.70;99.90
15095;DHT22;7648;52.264;9.632;2022-10-16T06:22:19;12.70;99.90
15095;DHT22;7648;52.264;9.632;2022-10-16T06:26:22;12.70;99.90
15095;DHT22;7648;52.264;9.632;2022-10-16T06:30:25;12.70;99.90
15095;DHT22;7648;52.264;9.632;2022-10-16T06:34:26;12.80;99.90
15095;DHT22;7648;52.264;9.632;2022-10-16T06:38:30;12.80;99.90
15095;DHT22;7648;52.264;9.632;2022-10-16T06:42:32;12.80;99.90
15095;DHT22;7648;52.264;9.632;2022-10-16T06:46:34;12.90;99.90
15095;DHT22;7648;52.264;9.632;2022-10-16T06:50:36;13.00;99.90
15095;DHT22;7648;52.264;9.632;2022-10-16T06:54:40;13.00;99.90
15095;DHT22;7648;52.264;9.632;2022-10-16T06:58:42;13.00;99.90
15095;DHT22;7648;52.264;9.632;2022-10-16T07:02:44;13.00;99.90
15095;DHT22;7648;52.264;9.632;2022-10-16T07:06:46;13.10;99.90
15095;DHT22;7648;52.264;9.632;2022-10-16T07:10:58;13.20;99.90
15095;DHT22;7648;52.264;9.632;2022-10-16T07:15:00;13.30;99.90
15095;DHT22;7648;52.264;9.632;2022-10-16T07:19:02;13.40;99.90
15095;DHT22;7648;52.264;9.632;2022-10-16T07:23:04;13.40;99.90
15095;DHT22;7648;52.264;9.632;2022-10-16T07:27:07;13.50;99.90
15095;DHT22;7648;52.264;9.632;2022-10-16T07:31:11;13.60;99.90
15095;DHT22;7648;52.264;9.632;2022-10-16T07:35:13;13.70;99.90
15095;DHT22;7648;52.264;9.632;2022-10-16T07:39:16;13.70;99.90
15095;DHT22;7648;52.264;9.632;2022-10-16T07:43:19;13.80;99.90
15095;DHT22;7648;52.264;9.632;2022-10-16T07:47:21;13.90;99.90
15095;DHT22;7648;52.264;9.632;2022-10-16T07:51:24;14.00;99.90
15095;DHT22;7648;52.264;9.632;2022-10-16T07:55:26;14.20;99.90
15095;DHT22;7648;52.264;9.632;2022-10-16T07:59:29;14.20;99.90
15095;DHT22;7648;52.264;9.632;2022-10-16T08:03:31;14.40;99.90
15095;DHT22;7648;52.264;9.632;2022-10-16T08:07:33;14.50;99.90
15095;DHT22;7648;52.264;9.632;2022-10-16T08:11:35;14.70;99.90
15095;DHT22;7648;52.264;9.632;2022-10-16T08:15:39;14.90;99.90
15095;DHT22;7648;52.264;9.632;2022-10-16T08:19:44;15.00;99.90
15095;DHT22;7648;52.264;9.632;2022-10-16T08:23:46;15.10;99.90
15095;DHT22;7648;52.264;9.632;2022-10-16T08:27:49;15.20;99.90
15095;DHT22;7648;52.264;9.632;2022-10-16T08:31:52;15.20;99.90
15095;DHT22;7648;52.264;9.632;2022-10-16T08:35:54;15.30;99.90
15095;DHT22;7648;52.264;9.632;2022-10-16T08:39:56;15.30;99.90
15095;DHT22;7648;52.264;9.632;2022-10-16T08:48:45;15.30;99.90
15095;DHT22;7648;52.264;9.632;2022-10-16T08:52:47;15.30;99.90
15095;DHT22;7648;52.264;9.632;2022-10-16T08:56:49;15.30;99.90
15095;DHT22;7648;52.264;9.632;2022-10-16T09:00:55;15.30;99.90
15095;DHT22;7648;52.264;9.632;2022-10-16T09:05:22;15.30;99.90
15095;DHT22;7648;52.264;9.632;2022-10-16T09:09:42;15.40;99.90
15095;DHT22;7648;52.264;9.632;2022-10-16T09:13:51;15.50;99.90
15095;DHT22;7648;52.264;9.632;2022-10-16T09:18:02;15.50;99.90
15095;DHT22;7648;52.264;9.632;2022-10-16T09:22:13;15.60;99.90
15095;DHT22;7648;52.264;9.632;2022-10-16T09:26:16;15.70;99.90
15095;DHT22;7648;52.264;9.632;2022-10-16T09:30:21;15.80;99.90
15095;DHT22;7648;52.264;9.632;2022-10-16T09:34:29;15.90;99.90
15095;DHT22;7648;52.264;9.632;2022-10-16T09:38:35;16.00;99.90
15095;DHT22;7648;52.264;9.632;2022-10-16T09:42:37;16.10;99.90
15095;DHT22;7648;52.264;9.632;2022-10-16T09:46:39;16.20;99.90
15095;DHT22;7648;52.264;9.632;2022-10-16T09:50:41;16.30;99.90
15095;DHT22;7648;52.264;9.632;2022-10-16T09:54:51;16.40;99.90
15095;DHT22;7648;52.264;9.632;2022-10-16T09:58:55;16.80;99.90
15095;DHT22;7648;52.264;9.632;2022-10-16T10:02:57;18.10;99.90
15095;DHT22;7648;52.264;9.632;2022-10-16T10:07:00;18.20;99.90
15095;DHT22;7648;52.264;9.632;2022-10-16T10:11:03;18.10;99.90
15095;DHT22;7648;52.264;9.632;2022-10-16T10:15:07;17.80;99.90
15095;DHT22;7648;52.264;9.632;2022-10-16T10:19:15;17.60;99.90
15095;DHT22;7648;52.264;9.632;2022-10-16T10:23:22;17.60;99.90
15095;DHT22;7648;52.264;9.632;2022-10-16T10:27:32;17.80;99.90
15095;DHT22;7648;52.264;9.632;2022-10-16T10:31:39;18.60;99.90
15095;DHT22;7648;52.264;9.632;2022-10-16T10:35:50;19.10;99.90
15095;DHT22;7648;52.264;9.632;2022-10-16T10:40:00;19.20;99.90
15095;DHT22;7648;52.264;9.632;2022-10-16T10:44:14;19.30;99.90
15095;DHT22;7648;52.264;9.632;2022-10-16T10:48:44;19.50;99.90
15095;DHT22;7648;52.264;9.632;2022-10-16T10:52:58;19.60;99.90
15095;DHT22;7648;52.264;9.632;2022-10-16T10:57:06;19.90;99.90
15095;DHT22;7648;52.264;9.632;2022-10-16T11:01:14;20.20;99.90
15095;DHT22;7648;52.264;9.632;2022-10-16T11:05:35;20.50;99.90
15095;DHT22;7648;52.264;9.632;2022-10-16T11:09:43;20.40;99.90
15095;DHT22;7648;52.264;9.632;2022-10-16T11:13:53;20.40;99.90
15095;DHT22;7648;52.264;9.632;2022-10-16T11:18:03;20.40;99.90
15095;DHT22;7648;52.264;9.632;2022-10-16T11:22:13;20.30;99.90
15095;DHT22;7648;52.264;9.632;2022-10-16T11:26:19;20.10;99.90
15095;DHT22;7648;52.264;9.632;2022-10-16T11:30:24;20.00;99.90
15095;DHT22;7648;52.264;9.632;2022-10-16T11:34:29;19.80;99.90
15095;DHT22;7648;52.264;9.632;2022-10-16T11:38:37;19.80;99.90
15095;DHT22;7648;52.264;9.632;2022-10-16T11:42:48;19.70;99.90
15095;DHT22;7648;52.264;9.632;2022-10-16T11:47:01;19.60;99.90
15095;DHT22;7648;52.264;9.632;2022-10-16T11:51:13;19.60;99.90
15095;DHT22;7648;52.264;9.632;2022-10-16T11:55:17;19.50;99.90
15095;DHT22;7648;52.264;9.632;2022-10-16T11:59:28;19.40;99.90
15095;DHT22;7648;52.264;9.632;2022-10-16T12:03:36;19.40;99.90
15095;DHT22;7648;52.264;9.632;2022-10-16T12:07:49;19.40;99.90
15095;DHT22;7648;52.264;9.632;2022-10-16T12:11:52;19.30;99.90
15095;DHT22;7648;52.264;9.632;2022-10-16T12:16:08;19.20;99.90
15095;DHT22;7648;52.264;9.632;2022-10-16T12:20:26;19.10;99.90
15095;DHT22;7648;52.264;9.632;2022-10-16T12:24:37;19.10;99.90
15095;DHT22;7648;52.264;9.632;2022-10-16T12:28:39;19.20;99.90
15095;DHT22;7648;52.264;9.632;2022-10-16T12:32:42;19.00;99.90
15095;DHT22;7648;52.264;9.632;2022-10-16T12:36:44;18.90;99.90
15095;DHT22;7648;52.264;9.632;2022-10-16T12:40:55;18.80;99.90
15095;DHT22;7648;52.264;9.632;2022-10-16T12:44:58;18.70;99.90
15095;DHT22;7648;52.264;9.632;2022-10-16T12:49:06;18.70;99.90
15095;DHT22;7648;52.264;9.632;2022-10-16T12:53:21;18.80;99.90
15095;DHT22;7648;52.264;9.632;2022-10-16T12:57:36;19.00;99.90
15095;DHT22;7648;52.264;9.632;2022-10-16T13:01:46;19.10;99.90
15095;DHT22;7648;52.264;9.632;2022-10-16T13:06:02;19.10;99.90
15095;DHT22;7648;52.264;9.632;2022-10-16T13:10:14;19.10;99.90
15095;DHT22;7648;52.264;9.632;2022-10-16T13:14:43;19.10;99.90
15095;DHT22;7648;52.264;9.632;2022-10-16T13:18:58;19.10;99.90
15095;DHT22;7648;52.264;9.632;2022-10-16T13:23:13;19.10;99.90
15095;DHT22;7648;52.264;9.632;2022-10-16T13:27:23;19.20;99.90
15095;DHT22;7648;52.264;9.632;2022-10-16T13:31:30;19.30;99.90
15095;DHT22;7648;52.264;9.632;2022-10-16T13:35:34;19.30;99.90
15095;DHT22;7648;52.264;9.632;2022-10-16T13:39:36;19.40;99.90
15095;DHT22;7648;52.264;9.632;2022-10-16T13:43:41;19.40;99.90
15095;DHT22;7648;52.264;9.632;2022-10-16T13:47:46;19.40;99.90
15095;DHT22;7648;52.264;9.632;2022-10-16T13:51:55;19.40;99.90
15095;DHT22;7648;52.264;9.632;2022-10-16T13:55:57;19.40;99.90
15095;DHT22;7648;52.264;9.632;2022-10-16T14:00:00;19.30;99.90
15095;DHT22;7648;52.264;9.632;2022-10-16T14:04:09;19.30;99.90
15095;DHT22;7648;52.264;9.632;2022-10-16T14:08:12;19.40;99.90
15095;DHT22;7648;52.264;9.632;2022-10-16T14:12:14;19.30;99.90
15095;DHT22;7648;52.264;9.632;2022-10-16T14:16:18;19.20;99.90
15095;DHT22;7648;52.264;9.632;2022-10-16T14:20:26;19.00;99.90
15095;DHT22;7648;52.264;9.632;2022-10-16T14:24:33;19.00;99.90
15095;DHT22;7648;52.264;9.632;2022-10-16T14:28:36;18.90;99.90
15095;DHT22;7648;52.264;9.632;2022-10-16T14:32:41;18.80;99.90
15095;DHT22;7648;52.264;9.632;2022-10-16T14:36:45;18.70;99.90
15095;DHT22;7648;52.264;9.632;2022-10-16T14:40:48;18.80;99.90
15095;DHT22;7648;52.264;9.632;2022-10-16T14:44:51;18.80;99.90
15095;DHT22;7648;52.264;9.632;2022-10-16T14:49:00;18.70;99.90
15095;DHT22;7648;52.264;9.632;2022-10-16T14:53:08;18.80;99.90
15095;DHT22;7648;52.264;9.632;2022-10-16T14:57:17;18.90;99.90
15095;DHT22;7648;52.264;9.632;2022-10-16T15:01:20;19.00;99.90
15095;DHT22;7648;52.264;9.632;2022-10-16T15:05:24;19.10;99.90
15095;DHT22;7648;52.264;9.632;2022-10-16T15:09:28;19.20;99.90
15095;DHT22;7648;52.264;9.632;2022-10-16T15:13:30;19.30;99.90
15095;DHT22;7648;52.264;9.632;2022-10-16T15:17:32;19.40;99.90
15095;DHT22;7648;52.264;9.632;2022-10-16T15:21:34;19.40;99.90
15095;DHT22;7648;52.264;9.632;2022-10-16T15:25:39;19.40;99.90
15095;DHT22;7648;52.264;9.632;2022-10-16T15:29:43;19.20;99.90
15095;DHT22;7648;52.264;9.632;2022-10-16T15:33:45;19.00;99.90
15095;DHT22;7648;52.264;9.632;2022-10-16T15:37:53;18.80;99.90
15095;DHT22;7648;52.264;9.632;2022-10-16T15:41:56;18.50;99.90
15095;DHT22;7648;52.264;9.632;2022-10-16T15:46:00;18.30;99.90
15095;DHT22;7648;52.264;9.632;2022-10-16T15:50:03;18.10;99.90
15095;DHT22;7648;52.264;9.632;2022-10-16T15:54:05;17.90;99.90
15095;DHT22;7648;52.264;9.632;2022-10-16T15:58:09;17.80;99.90
15095;DHT22;7648;52.264;9.632;2022-10-16T16:02:11;17.80;99.90
15095;DHT22;7648;52.264;9.632;2022-10-16T16:06:14;17.70;99.90
15095;DHT22;7648;52.264;9.632;2022-10-16T16:10:16;17.60;99.90
15095;DHT22;7648;52.264;9.632;2022-10-16T16:14:19;17.50;99.90
15095;DHT22;7648;52.264;9.632;2022-10-16T16:18:21;17.40;99.90
15095;DHT22;7648;52.264;9.632;2022-10-16T16:22:24;17.20;99.90
15095;DHT22;7648;52.264;9.632;2022-10-16T16:26:27;17.00;99.90
15095;DHT22;7648;52.264;9.632;2022-10-16T16:30:34;16.80;99.90
15095;DHT22;7648;52.264;9.632;2022-10-16T16:34:36;16.60;99.90
15095;DHT22;7648;52.264;9.632;2022-10-16T16:38:38;16.40;99.90
15095;DHT22;7648;52.264;9.632;2022-10-16T16:42:40;16.30;99.90
15095;DHT22;7648;52.264;9.632;2022-10-16T16:46:44;16.20;99.90
15095;DHT22;7648;52.264;9.632;2022-10-16T16:50:46;16.10;99.90
15095;DHT22;7648;52.264;9.632;2022-10-16T16:54:48;15.80;99.90
15095;DHT22;7648;52.264;9.632;2022-10-16T16:58:54;15.60;99.90
15095;DHT22;7648;52.264;9.632;2022-10-16T17:02:57;15.50;99.90
15095;DHT22;7648;52.264;9.632;2022-10-16T17:06:59;15.40;99.90
15095;DHT22;7648;52.264;9.632;2022-10-16T17:11:01;15.40;99.90
15095;DHT22;7648;52.264;9.632;2022-10-16T17:15:04;15.30;99.90
15095;DHT22;7648;52.264;9.632;2022-10-16T17:19:10;15.30;99.90
15095;DHT22;7648;52.264;9.632;2022-10-16T17:23:14;15.20;99.90
15095;DHT22;7648;52.264;9.632;2022-10-16T17:27:16;15.20;99.90
15095;DHT22;7648;52.264;9.632;2022-10-16T17:31:20;15.10;99.90
15095;DHT22;7648;52.264;9.632;2022-10-16T17:35:24;15.10;99.90
15095;DHT22;7648;52.264;9.632;2022-10-16T17:39:26;15.10;99.90
15095;DHT22;7648;52.264;9.632;2022-10-16T17:43:28;15.10;99.90
15095;DHT22;7648;52.264;9.632;2022-10-16T17:47:30;15.10;99.90
15095;DHT22;7648;52.264;9.632;2022-10-16T17:51:33;15.00;99.90
15095;DHT22;7648;52.264;9.632;2022-10-16T17:55:37;15.00;99.90
15095;DHT22;7648;52.264;9.632;2022-10-16T17:59:39;15.00;99.90
15095;DHT22;7648;52.264;9.632;2022-10-16T18:03:41;15.00;99.90
15095;DHT22;7648;52.264;9.632;2022-10-16T18:07:45;15.10;99.90
15095;DHT22;7648;52.264;9.632;2022-10-16T18:11:47;15.10;99.90
15095;DHT22;7648;52.264;9.632;2022-10-16T18:15:59;15.10;99.90
15095;DHT22;7648;52.264;9.632;2022-10-16T18:20:01;15.00;99.90
15095;DHT22;7648;52.264;9.632;2022-10-16T18:24:05;15.00;99.90
15095;DHT22;7648;52.264;9.632;2022-10-16T18:28:07;14.90;99.90
15095;DHT22;7648;52.264;9.632;2022-10-16T18:32:09;14.90;99.90
15095;DHT22;7648;52.264;9.632;2022-10-16T18:36:11;14.80;99.90
15095;DHT22;7648;52.264;9.632;2022-10-16T18:40:14;14.80;99.90
15095;DHT22;7648;52.264;9.632;2022-10-16T18:44:16;14.70;99.90
15095;DHT22;7648;52.264;9.632;2022-10-16T18:48:18;14.60;99.90
15095;DHT22;7648;52.264;9.632;2022-10-16T18:52:20;14.60;99.90
15095;DHT22;7648;52.264;9.632;2022-10-16T18:56:26;14.60;99.90
15095;DHT22;7648;52.264;9.632;2022-10-16T19:00:28;14.50;99.90
15095;DHT22;7648;52.264;9.632;2022-10-16T19:04:30;14.50;99.90
15095;DHT22;7648;52.264;9.632;2022-10-16T19:08:32;14.50;99.90
15095;DHT22;7648;52.264;9.632;2022-10-16T19:12:35;14.50;99.90
15095;DHT22;7648;52.264;9.632;2022-10-16T19:16:38;14.50;99.90
15095;DHT22;7648;52.264;9.632;2022-10-16T19:20:42;14.40;99.90
15095;DHT22;7648;52.264;9.632;2022-10-16T19:24:44;14.40;99.90
15095;DHT22;7648;52.264;9.632;2022-10-16T19:28:47;14.30;99.90
15095;DHT22;7648;52.264;9.632;2022-10-16T19:32:50;14.20;99.90
15095;DHT22;7648;52.264;9.632;2022-10-16T19:36:52;14.20;99.90
15095;DHT22;7648;52.264;9.632;2022-10-16T19:40:54;14.10;99.90
15095;DHT22;7648;52.264;9.632;2022-10-16T19:44:58;14.10;99.90
15095;DHT22;7648;52.264;9.632;2022-10-16T19:49:01;14.00;99.90
15095;DHT22;7648;52.264;9.632;2022-10-16T19:53:03;14.00;99.90
15095;DHT22;7648;52.264;9.632;2022-10-16T19:57:05;14.00;99.90
15095;DHT22;7648;52.264;9.632;2022-10-16T20:01:11;14.00;99.90
15095;DHT22;7648;52.264;9.632;2022-10-16T20:05:13;14.00;99.90
15095;DHT22;7648;52.264;9.632;2022-10-16T20:09:15;13.90;99.90
15095;DHT22;7648;52.264;9.632;2022-10-16T20:13:18;13.90;99.90
15095;DHT22;7648;52.264;9.632;2022-10-16T20:17:22;13.90;99.90
15095;DHT22;7648;52.264;9.632;2022-10-16T20:21:26;13.90;99.90
15095;DHT22;7648;52.264;9.632;2022-10-16T20:25:28;13.90;99.90
15095;DHT22;7648;52.264;9.632;2022-10-16T20:29:30;14.00;99.90
15095;DHT22;7648;52.264;9.632;2022-10-16T20:33:33;14.00;99.90
15095;DHT22;7648;52.264;9.632;2022-10-16T20:37:35;14.10;99.90
15095;DHT22;7648;52.264;9.632;2022-10-16T20:41:37;14.10;99.90
15095;DHT22;7648;52.264;9.632;2022-10-16T20:45:39;14.20;99.90
15095;DHT22;7648;52.264;9.632;2022-10-16T20:49:43;14.20;99.90
15095;DHT22;7648;52.264;9.632;2022-10-16T20:53:46;14.30;99.90
15095;DHT22;7648;52.264;9.632;2022-10-16T20:57:48;14.40;99.90
15095;DHT22;7648;52.264;9.632;2022-10-16T21:01:50;14.50;99.90
15095;DHT22;7648;52.264;9.632;2022-10-16T21:05:54;14.50;99.90
15095;DHT22;7648;52.264;9.632;2022-10-16T21:09:56;14.50;99.90
15095;DHT22;7648;52.264;9.632;2022-10-16T21:14:00;14.60;99.90
15095;DHT22;7648;52.264;9.632;2022-10-16T21:18:03;14.60;99.90
15095;DHT22;7648;52.264;9.632;2022-10-16T21:22:06;14.50;99.90
15095;DHT22;7648;52.264;9.632;2022-10-16T21:26:08;14.50;99.90
15095;DHT22;7648;52.264;9.632;2022-10-16T21:30:10;14.40;99.90
15095;DHT22;7648;52.264;9.632;2022-10-16T21:34:12;14.40;99.90
15095;DHT22;7648;52.264;9.632;2022-10-16T21:38:15;14.40;99.90
15095;DHT22;7648;52.264;9.632;2022-10-16T21:42:17;14.40;99.90
15095;DHT22;7648;52.264;9.632;2022-10-16T21:46:21;14.50;99.90
15095;DHT22;7648;52.264;9.632;2022-10-16T21:50:23;14.40;99.90
15095;DHT22;7648;52.264;9.632;2022-10-16T21:54:26;14.50;99.90
15095;DHT22;7648;52.264;9.632;2022-10-16T21:58:30;14.50;99.90
15095;DHT22;7648;52.264;9.632;2022-10-16T22:02:32;14.40;99.90
15095;DHT22;7648;52.264;9.632;2022-10-16T22:06:34;14.30;99.90
15095;DHT22;7648;52.264;9.632;2022-10-16T22:10:37;14.30;99.90
15095;DHT22;7648;52.264;9.632;2022-10-16T22:14:39;14.20;99.90
15095;DHT22;7648;52.264;9.632;2022-10-16T22:18:41;14.20;99.90
15095;DHT22;7648;52.264;9.632;2022-10-16T22:22:43;14.20;99.90
15095;DHT22;7648;52.264;9.632;2022-10-16T22:26:46;14.20;99.90
15095;DHT22;7648;52.264;9.632;2022-10-16T22:30:48;14.20;99.90
15095;DHT22;7648;52.264;9.632;2022-10-16T22:34:50;14.20;99.90
15095;DHT22;7648;52.264;9.632;2022-10-16T22:38:52;14.20;99.90
15095;DHT22;7648;52.264;9.632;2022-10-16T22:42:56;14.10;99.90
15095;DHT22;7648;52.264;9.632;2022-10-16T22:46:58;14.10;99.90
15095;DHT22;7648;52.264;9.632;2022-10-16T22:51:00;14.20;99.90
15095;DHT22;7648;52.264;9.632;2022-10-16T22:55:03;14.20;99.90
15095;DHT22;7648;52.264;9.632;2022-10-16T22:59:07;14.20;99.90
15095;DHT22;7648;52.264;9.632;2022-10-16T23:03:09;14.10;99.90
15095;DHT22;7648;52.264;9.632;2022-10-16T23:07:11;14.10;99.90
15095;DHT22;7648;52.264;9.632;2022-10-16T23:11:13;14.10;99.90
15095;DHT22;7648;52.264;9.632;2022-10-16T23:15:16;14.00;99.90
15095;DHT22;7648;52.264;9.632;2022-10-16T23:19:18;14.00;99.90
15095;DHT22;7648;52.264;9.632;2022-10-16T23:23:20;14.00;99.90
15095;DHT22;7648;52.264;9.632;2022-10-16T23:27:22;14.00;99.90
15095;DHT22;7648;52.264;9.632;2022-10-16T23:31:27;14.00;99.90
15095;DHT22;7648;52.264;9.632;2022-10-16T23:35:29;14.00;99.90
15095;DHT22;7648;52.264;9.632;2022-10-16T23:39:30;14.00;99.90
15095;DHT22;7648;52.264;9.632;2022-10-16T23:43:32;14.00;99.90
15095;DHT22;7648;52.264;9.632;2022-10-16T23:47:36;14.00;99.90
15095;DHT22;7648;52.264;9.632;2022-10-16T23:51:38;14.00;99.90
15095;DHT22;7648;52.264;9.632;2022-10-16T23:55:40;14.00;99.90
15095;DHT22;7648;52.264;9.632;2022-10-16T23:59:42;14.00;99.90
